sensor_id;sensor_type;location;lat;lon;timestamp;P1;durP1;ratioP1;P2;durP2;ratioP2
10351;SDS011;5222;49.324;8.420;2022-07-22T00:01:53;1091.22;;;999.90;;
10351;SDS011;5222;49.324;8.420;2022-07-22T00:04:19;1082.45;;;999.90;;
10351;SDS011;5222;49.324;8.420;2022-07-22T00:06:46;1082.68;;;999.90;;
10351;SDS011;5222;49.324;8.420;2022-07-22T00:09:13;1078.82;;;999.90;;
10351;SDS011;5222;49.324;8.420;2022-07-22T00:11:40;1078.70;;;999.90;;
10351;SDS011;5222;49.324;8.420;2022-07-22T00:14:06;1082.75;;;999.90;;
10351;SDS011;5222;49.324;8.420;2022-07-22T00:16:34;1084.33;;;999.90;;
10351;SDS011;5222;49.324;8.420;2022-07-22T00:19:01;1114.65;;;999.90;;
10351;SDS011;5222;49.324;8.420;2022-07-22T00:21:28;1093.55;;;999.90;;
10351;SDS011;5222;49.324;8.420;2022-07-22T00:23:55;1081.88;;;999.90;;
10351;SDS011;5222;49.324;8.420;2022-07-22T00:26:21;1088.65;;;999.90;;
10351;SDS011;5222;49.324;8.420;2022-07-22T00:28:48;1074.25;;;999.90;;
10351;SDS011;5222;49.324;8.420;2022-07-22T00:31:15;1081.28;;;999.90;;
10351;SDS011;5222;49.324;8.420;2022-07-22T00:33:43;1075.32;;;999.90;;
10351;SDS011;5222;49.324;8.420;2022-07-22T00:36:10;1078.43;;;999.90;;
10351;SDS011;5222;49.324;8.420;2022-07-22T00:38:37;1096.13;;;999.90;;
10351;SDS011;5222;49.324;8.420;2022-07-22T00:41:04;1092.60;;;999.90;;
10351;SDS011;5222;49.324;8.420;2022-07-22T00:46:16;1089.20;;;999.90;;
10351;SDS011;5222;49.324;8.420;2022-07-22T00:48:44;1082.90;;;999.90;;
10351;SDS011;5222;49.324;8.420;2022-07-22T00:51:11;1084.28;;;999.90;;
10351;SDS011;5222;49.324;8.420;2022-07-22T00:53:39;1088.23;;;999.90;;
10351;SDS011;5222;49.324;8.420;2022-07-22T00:56:06;1087.97;;;999.90;;
10351;SDS011;5222;49.324;8.420;2022-07-22T00:58:33;1097.65;;;999.90;;
10351;SDS011;5222;49.324;8.420;2022-07-22T01:01:00;1089.18;;;999.90;;
10351;SDS011;5222;49.324;8.420;2022-07-22T01:03:27;1092.93;;;999.90;;
10351;SDS011;5222;49.324;8.420;2022-07-22T01:05:55;1092.93;;;999.90;;
10351;SDS011;5222;49.324;8.420;2022-07-22T01:08:22;1095.93;;;999.90;;
10351;SDS011;5222;49.324;8.420;2022-07-22T01:10:49;1084.18;;;999.90;;
10351;SDS011;5222;49.324;8.420;2022-07-22T01:13:16;1082.70;;;999.90;;
10351;SDS011;5222;49.324;8.420;2022-07-22T01:15:43;1113.40;;;999.90;;
10351;SDS011;5222;49.324;8.420;2022-07-22T01:18:09;1091.07;;;999.90;;
10351;SDS011;5222;49.324;8.420;2022-07-22T01:20:38;1111.57;;;999.90;;
10351;SDS011;5222;49.324;8.420;2022-07-22T01:23:04;1094.82;;;999.90;;
10351;SDS011;5222;49.324;8.420;2022-07-22T01:25:31;1085.75;;;999.90;;
10351;SDS011;5222;49.324;8.420;2022-07-22T01:27:58;1080.93;;;999.90;;
10351;SDS011;5222;49.324;8.420;2022-07-22T01:30:24;1097.80;;;999.90;;
10351;SDS011;5222;49.324;8.420;2022-07-22T01:32:51;1085.78;;;999.90;;
10351;SDS011;5222;49.324;8.420;2022-07-22T01:35:18;1084.33;;;999.90;;
10351;SDS011;5222;49.324;8.420;2022-07-22T01:37:46;1080.85;;;999.90;;
10351;SDS011;5222;49.324;8.420;2022-07-22T01:40:13;1080.32;;;999.90;;
10351;SDS011;5222;49.324;8.420;2022-07-22T01:42:40;1082.85;;;999.90;;
10351;SDS011;5222;49.324;8.420;2022-07-22T01:45:07;1083.10;;;999.90;;
10351;SDS011;5222;49.324;8.420;2022-07-22T01:47:35;1087.63;;;999.90;;
10351;SDS011;5222;49.324;8.420;2022-07-22T01:50:02;1079.00;;;999.90;;
10351;SDS011;5222;49.324;8.420;2022-07-22T01:52:29;1079.53;;;999.90;;
10351;SDS011;5222;49.324;8.420;2022-07-22T01:54:57;1081.68;;;999.90;;
10351;SDS011;5222;49.324;8.420;2022-07-22T01:57:24;1084.22;;;999.90;;
10351;SDS011;5222;49.324;8.420;2022-07-22T01:59:50;1077.13;;;999.90;;
10351;SDS011;5222;49.324;8.420;2022-07-22T02:02:17;1085.15;;;999.90;;
10351;SDS011;5222;49.324;8.420;2022-07-22T02:04:44;1101.00;;;999.90;;
10351;SDS011;5222;49.324;8.420;2022-07-22T02:07:10;1121.75;;;999.90;;
10351;SDS011;5222;49.324;8.420;2022-07-22T02:09:37;1099.93;;;999.90;;
10351;SDS011;5222;49.324;8.420;2022-07-22T02:12:06;1101.82;;;999.90;;
10351;SDS011;5222;49.324;8.420;2022-07-22T02:14:33;1102.20;;;999.90;;
10351;SDS011;5222;49.324;8.420;2022-07-22T02:17:00;1087.95;;;999.90;;
10351;SDS011;5222;49.324;8.420;2022-07-22T02:19:26;1093.70;;;999.90;;
10351;SDS011;5222;49.324;8.420;2022-07-22T02:21:53;1100.25;;;999.90;;
10351;SDS011;5222;49.324;8.420;2022-07-22T02:24:20;1097.78;;;999.90;;
10351;SDS011;5222;49.324;8.420;2022-07-22T02:26:47;1091.03;;;999.90;;
10351;SDS011;5222;49.324;8.420;2022-07-22T02:29:15;1100.88;;;999.90;;
10351;SDS011;5222;49.324;8.420;2022-07-22T02:31:41;1092.88;;;999.90;;
10351;SDS011;5222;49.324;8.420;2022-07-22T02:34:08;1093.13;;;999.90;;
10351;SDS011;5222;49.324;8.420;2022-07-22T02:36:35;1085.20;;;999.90;;
10351;SDS011;5222;49.324;8.420;2022-07-22T02:39:02;1091.72;;;999.90;;
10351;SDS011;5222;49.324;8.420;2022-07-22T02:41:29;1089.53;;;999.90;;
10351;SDS011;5222;49.324;8.420;2022-07-22T02:43:56;1088.07;;;999.90;;
10351;SDS011;5222;49.324;8.420;2022-07-22T02:46:25;1098.43;;;999.90;;
10351;SDS011;5222;49.324;8.420;2022-07-22T02:48:53;1080.82;;;999.90;;
10351;SDS011;5222;49.324;8.420;2022-07-22T02:51:20;1087.18;;;999.90;;
10351;SDS011;5222;49.324;8.420;2022-07-22T02:53:47;1077.70;;;999.90;;
10351;SDS011;5222;49.324;8.420;2022-07-22T02:56:14;1088.50;;;999.90;;
10351;SDS011;5222;49.324;8.420;2022-07-22T02:58:41;1090.57;;;999.90;;
10351;SDS011;5222;49.324;8.420;2022-07-22T03:01:08;1080.15;;;999.90;;
10351;SDS011;5222;49.324;8.420;2022-07-22T03:03:36;1090.07;;;999.90;;
10351;SDS011;5222;49.324;8.420;2022-07-22T03:06:03;1092.38;;;999.90;;
10351;SDS011;5222;49.324;8.420;2022-07-22T03:08:30;1091.53;;;999.90;;
10351;SDS011;5222;49.324;8.420;2022-07-22T03:10:56;1090.00;;;999.90;;
10351;SDS011;5222;49.324;8.420;2022-07-22T03:13:23;1086.18;;;999.90;;
10351;SDS011;5222;49.324;8.420;2022-07-22T03:15:50;1088.70;;;999.90;;
10351;SDS011;5222;49.324;8.420;2022-07-22T03:18:17;1091.30;;;999.90;;
10351;SDS011;5222;49.324;8.420;2022-07-22T03:20:45;1103.27;;;999.90;;
10351;SDS011;5222;49.324;8.420;2022-07-22T03:23:11;1092.35;;;999.90;;
10351;SDS011;5222;49.324;8.420;2022-07-22T03:25:38;1098.78;;;999.90;;
10351;SDS011;5222;49.324;8.420;2022-07-22T03:28:05;1111.72;;;999.90;;
10351;SDS011;5222;49.324;8.420;2022-07-22T03:30:32;1095.55;;;999.90;;
10351;SDS011;5222;49.324;8.420;2022-07-22T03:32:59;1099.53;;;999.90;;
10351;SDS011;5222;49.324;8.420;2022-07-22T03:35:26;1098.50;;;999.90;;
10351;SDS011;5222;49.324;8.420;2022-07-22T03:37:54;1089.65;;;999.90;;
10351;SDS011;5222;49.324;8.420;2022-07-22T03:40:20;1103.00;;;999.90;;
10351;SDS011;5222;49.324;8.420;2022-07-22T03:42:47;1088.45;;;999.90;;
10351;SDS011;5222;49.324;8.420;2022-07-22T03:45:14;1090.63;;;999.90;;
10351;SDS011;5222;49.324;8.420;2022-07-22T03:47:41;1093.90;;;999.90;;
10351;SDS011;5222;49.324;8.420;2022-07-22T03:50:08;1092.40;;;999.90;;
10351;SDS011;5222;49.324;8.420;2022-07-22T03:52:35;1095.75;;;999.90;;
10351;SDS011;5222;49.324;8.420;2022-07-22T03:55:04;401.20;;;244.05;;
10351;SDS011;5222;49.324;8.420;2022-07-22T03:57:31;487.48;;;434.33;;
10351;SDS011;5222;49.324;8.420;2022-07-22T03:59:58;913.70;;;848.60;;
10351;SDS011;5222;49.324;8.420;2022-07-22T04:02:25;1095.95;;;999.90;;
10351;SDS011;5222;49.324;8.420;2022-07-22T04:04:52;1142.15;;;999.90;;
10351;SDS011;5222;49.324;8.420;2022-07-22T04:07:18;1123.00;;;999.90;;
10351;SDS011;5222;49.324;8.420;2022-07-22T04:09:46;1120.43;;;999.90;;
10351;SDS011;5222;49.324;8.420;2022-07-22T04:12:15;1111.53;;;999.90;;
10351;SDS011;5222;49.324;8.420;2022-07-22T04:14:41;1124.72;;;999.90;;
10351;SDS011;5222;49.324;8.420;2022-07-22T04:17:08;1126.95;;;999.90;;
10351;SDS011;5222;49.324;8.420;2022-07-22T04:19:35;1142.15;;;999.90;;
10351;SDS011;5222;49.324;8.420;2022-07-22T04:22:02;1141.38;;;999.90;;
10351;SDS011;5222;49.324;8.420;2022-07-22T04:24:28;1145.95;;;999.90;;
10351;SDS011;5222;49.324;8.420;2022-07-22T04:26:55;1165.82;;;999.90;;
10351;SDS011;5222;49.324;8.420;2022-07-22T04:29:23;1168.45;;;999.90;;
10351;SDS011;5222;49.324;8.420;2022-07-22T04:31:50;1147.57;;;999.90;;
10351;SDS011;5222;49.324;8.420;2022-07-22T04:34:17;1145.93;;;999.90;;
10351;SDS011;5222;49.324;8.420;2022-07-22T04:36:43;1151.85;;;999.90;;
10351;SDS011;5222;49.324;8.420;2022-07-22T04:39:10;1167.80;;;999.90;;
10351;SDS011;5222;49.324;8.420;2022-07-22T04:41:37;1157.82;;;999.90;;
10351;SDS011;5222;49.324;8.420;2022-07-22T04:44:04;1171.27;;;999.90;;
10351;SDS011;5222;49.324;8.420;2022-07-22T04:46:33;1162.65;;;999.90;;
10351;SDS011;5222;49.324;8.420;2022-07-22T04:48:59;1158.82;;;999.90;;
10351;SDS011;5222;49.324;8.420;2022-07-22T04:51:26;1165.68;;;999.90;;
10351;SDS011;5222;49.324;8.420;2022-07-22T04:53:53;1147.45;;;999.90;;
10351;SDS011;5222;49.324;8.420;2022-07-22T04:56:21;1151.78;;;999.90;;
10351;SDS011;5222;49.324;8.420;2022-07-22T04:58:47;1170.95;;;999.90;;
10351;SDS011;5222;49.324;8.420;2022-07-22T05:01:14;1165.18;;;999.90;;
10351;SDS011;5222;49.324;8.420;2022-07-22T05:03:43;1149.88;;;999.90;;
10351;SDS011;5222;49.324;8.420;2022-07-22T05:06:09;1137.80;;;999.90;;
10351;SDS011;5222;49.324;8.420;2022-07-22T05:08:36;1139.68;;;999.90;;
10351;SDS011;5222;49.324;8.420;2022-07-22T05:11:03;1149.93;;;999.90;;
10351;SDS011;5222;49.324;8.420;2022-07-22T05:13:30;1141.32;;;999.90;;
10351;SDS011;5222;49.324;8.420;2022-07-22T05:15:57;1140.17;;;999.90;;
10351;SDS011;5222;49.324;8.420;2022-07-22T05:18:27;1165.53;;;999.90;;
10351;SDS011;5222;49.324;8.420;2022-07-22T05:20:55;1154.68;;;999.90;;
10351;SDS011;5222;49.324;8.420;2022-07-22T05:23:22;1155.35;;;999.90;;
10351;SDS011;5222;49.324;8.420;2022-07-22T05:25:49;1145.47;;;999.90;;
10351;SDS011;5222;49.324;8.420;2022-07-22T05:28:16;1165.05;;;999.90;;
10351;SDS011;5222;49.324;8.420;2022-07-22T05:30:44;1150.95;;;999.90;;
10351;SDS011;5222;49.324;8.420;2022-07-22T05:33:11;1117.75;;;999.90;;
10351;SDS011;5222;49.324;8.420;2022-07-22T05:35:38;1151.07;;;999.90;;
10351;SDS011;5222;49.324;8.420;2022-07-22T05:38:06;1113.80;;;999.90;;
10351;SDS011;5222;49.324;8.420;2022-07-22T05:40:33;1162.53;;;999.90;;
10351;SDS011;5222;49.324;8.420;2022-07-22T05:42:59;1150.03;;;999.90;;
10351;SDS011;5222;49.324;8.420;2022-07-22T05:45:26;1126.53;;;999.90;;
10351;SDS011;5222;49.324;8.420;2022-07-22T05:47:53;1157.28;;;999.90;;
10351;SDS011;5222;49.324;8.420;2022-07-22T05:50:19;1126.97;;;999.90;;
10351;SDS011;5222;49.324;8.420;2022-07-22T05:52:46;1127.70;;;999.90;;
10351;SDS011;5222;49.324;8.420;2022-07-22T05:55:14;1144.22;;;999.90;;
10351;SDS011;5222;49.324;8.420;2022-07-22T05:57:41;1146.77;;;999.90;;
10351;SDS011;5222;49.324;8.420;2022-07-22T06:00:09;1153.72;;;999.90;;
10351;SDS011;5222;49.324;8.420;2022-07-22T06:02:36;1154.05;;;999.90;;
10351;SDS011;5222;49.324;8.420;2022-07-22T06:05:03;1138.43;;;999.90;;
10351;SDS011;5222;49.324;8.420;2022-07-22T06:07:30;1150.75;;;999.90;;
10351;SDS011;5222;49.324;8.420;2022-07-22T06:09:57;1124.18;;;999.90;;
10351;SDS011;5222;49.324;8.420;2022-07-22T06:12:25;1136.82;;;999.90;;
10351;SDS011;5222;49.324;8.420;2022-07-22T06:14:52;1106.95;;;999.90;;
10351;SDS011;5222;49.324;8.420;2022-07-22T06:17:18;1114.32;;;999.90;;
10351;SDS011;5222;49.324;8.420;2022-07-22T06:19:45;1114.50;;;999.90;;
10351;SDS011;5222;49.324;8.420;2022-07-22T06:22:12;1122.45;;;999.90;;
10351;SDS011;5222;49.324;8.420;2022-07-22T06:24:39;1132.30;;;999.90;;
10351;SDS011;5222;49.324;8.420;2022-07-22T06:27:05;1116.28;;;999.90;;
10351;SDS011;5222;49.324;8.420;2022-07-22T06:29:33;1121.15;;;999.90;;
10351;SDS011;5222;49.324;8.420;2022-07-22T06:32:00;1113.55;;;999.90;;
10351;SDS011;5222;49.324;8.420;2022-07-22T06:34:27;1113.43;;;999.90;;
10351;SDS011;5222;49.324;8.420;2022-07-22T06:36:54;1105.15;;;999.90;;
10351;SDS011;5222;49.324;8.420;2022-07-22T06:39:21;1111.57;;;999.90;;
10351;SDS011;5222;49.324;8.420;2022-07-22T06:41:47;1105.00;;;999.90;;
10351;SDS011;5222;49.324;8.420;2022-07-22T06:44:14;1100.50;;;999.90;;
10351;SDS011;5222;49.324;8.420;2022-07-22T06:46:42;1097.63;;;999.90;;
10351;SDS011;5222;49.324;8.420;2022-07-22T06:49:09;1094.85;;;999.90;;
10351;SDS011;5222;49.324;8.420;2022-07-22T06:51:36;1101.88;;;999.90;;
10351;SDS011;5222;49.324;8.420;2022-07-22T06:54:03;1089.35;;;999.90;;
10351;SDS011;5222;49.324;8.420;2022-07-22T06:56:30;1098.40;;;999.90;;
10351;SDS011;5222;49.324;8.420;2022-07-22T06:58:57;1093.28;;;999.90;;
10351;SDS011;5222;49.324;8.420;2022-07-22T07:01:23;1096.17;;;999.90;;
10351;SDS011;5222;49.324;8.420;2022-07-22T07:03:51;1091.93;;;999.90;;
10351;SDS011;5222;49.324;8.420;2022-07-22T07:06:18;1099.77;;;999.90;;
10351;SDS011;5222;49.324;8.420;2022-07-22T07:08:45;1097.68;;;999.90;;
10351;SDS011;5222;49.324;8.420;2022-07-22T07:11:12;1085.33;;;999.90;;
10351;SDS011;5222;49.324;8.420;2022-07-22T07:13:39;1087.75;;;999.90;;
10351;SDS011;5222;49.324;8.420;2022-07-22T07:16:06;1092.22;;;999.90;;
10351;SDS011;5222;49.324;8.420;2022-07-22T07:18:33;1086.32;;;999.90;;
10351;SDS011;5222;49.324;8.420;2022-07-22T07:21:01;1085.80;;;999.90;;
10351;SDS011;5222;49.324;8.420;2022-07-22T07:23:29;1084.03;;;999.90;;
10351;SDS011;5222;49.324;8.420;2022-07-22T07:25:55;1098.97;;;999.90;;
10351;SDS011;5222;49.324;8.420;2022-07-22T07:28:22;1085.03;;;999.90;;
10351;SDS011;5222;49.324;8.420;2022-07-22T07:30:49;1086.78;;;999.90;;
10351;SDS011;5222;49.324;8.420;2022-07-22T07:33:16;1081.97;;;999.90;;
10351;SDS011;5222;49.324;8.420;2022-07-22T07:35:43;1091.60;;;999.90;;
10351;SDS011;5222;49.324;8.420;2022-07-22T07:38:11;1081.57;;;999.90;;
10351;SDS011;5222;49.324;8.420;2022-07-22T07:40:37;1097.68;;;999.90;;
10351;SDS011;5222;49.324;8.420;2022-07-22T07:43:04;1083.60;;;999.90;;
10351;SDS011;5222;49.324;8.420;2022-07-22T07:45:31;1084.13;;;999.90;;
10351;SDS011;5222;49.324;8.420;2022-07-22T07:47:58;1081.70;;;999.90;;
10351;SDS011;5222;49.324;8.420;2022-07-22T07:50:25;1082.47;;;999.90;;
10351;SDS011;5222;49.324;8.420;2022-07-22T07:52:52;1088.68;;;999.90;;
10351;SDS011;5222;49.324;8.420;2022-07-22T07:55:20;1076.10;;;999.90;;
10351;SDS011;5222;49.324;8.420;2022-07-22T07:57:46;1083.60;;;999.90;;
10351;SDS011;5222;49.324;8.420;2022-07-22T08:00:14;1080.38;;;999.90;;
10351;SDS011;5222;49.324;8.420;2022-07-22T08:02:42;1078.38;;;999.90;;
10351;SDS011;5222;49.324;8.420;2022-07-22T08:05:09;1078.90;;;999.90;;
10351;SDS011;5222;49.324;8.420;2022-07-22T08:07:36;1091.32;;;999.90;;
10351;SDS011;5222;49.324;8.420;2022-07-22T08:10:04;1077.27;;;999.90;;
10351;SDS011;5222;49.324;8.420;2022-07-22T08:12:33;1078.55;;;999.90;;
10351;SDS011;5222;49.324;8.420;2022-07-22T08:15:00;1087.25;;;999.90;;
10351;SDS011;5222;49.324;8.420;2022-07-22T08:17:27;1074.97;;;999.90;;
10351;SDS011;5222;49.324;8.420;2022-07-22T08:19:54;1085.07;;;999.90;;
10351;SDS011;5222;49.324;8.420;2022-07-22T08:22:21;1081.45;;;999.90;;
10351;SDS011;5222;49.324;8.420;2022-07-22T08:24:47;1072.47;;;999.38;;
10351;SDS011;5222;49.324;8.420;2022-07-22T08:27:14;1033.53;;;964.67;;
10351;SDS011;5222;49.324;8.420;2022-07-22T08:29:42;1017.88;;;949.67;;
10351;SDS011;5222;49.324;8.420;2022-07-22T08:32:09;961.78;;;895.95;;
10351;SDS011;5222;49.324;8.420;2022-07-22T08:34:36;988.53;;;921.47;;
10351;SDS011;5222;49.324;8.420;2022-07-22T08:37:03;979.10;;;911.83;;
10351;SDS011;5222;49.324;8.420;2022-07-22T08:39:29;949.25;;;883.45;;
10351;SDS011;5222;49.324;8.420;2022-07-22T08:41:56;866.05;;;803.30;;
10351;SDS011;5222;49.324;8.420;2022-07-22T08:44:23;876.33;;;813.85;;
10351;SDS011;5222;49.324;8.420;2022-07-22T08:46:51;879.10;;;815.80;;
10351;SDS011;5222;49.324;8.420;2022-07-22T08:49:18;895.15;;;831.22;;
10351;SDS011;5222;49.324;8.420;2022-07-22T08:51:46;901.90;;;838.88;;
10351;SDS011;5222;49.324;8.420;2022-07-22T08:54:13;898.25;;;835.92;;
10351;SDS011;5222;49.324;8.420;2022-07-22T08:56:40;894.00;;;831.17;;
10351;SDS011;5222;49.324;8.420;2022-07-22T08:59:07;887.05;;;824.20;;
10351;SDS011;5222;49.324;8.420;2022-07-22T09:01:34;885.08;;;822.40;;
10351;SDS011;5222;49.324;8.420;2022-07-22T09:04:03;885.78;;;823.97;;
10351;SDS011;5222;49.324;8.420;2022-07-22T09:06:30;885.70;;;822.70;;
10351;SDS011;5222;49.324;8.420;2022-07-22T09:08:58;892.60;;;828.72;;
10351;SDS011;5222;49.324;8.420;2022-07-22T09:11:27;885.20;;;823.08;;
10351;SDS011;5222;49.324;8.420;2022-07-22T09:13:56;893.95;;;831.63;;
10351;SDS011;5222;49.324;8.420;2022-07-22T09:16:39;895.20;;;832.10;;
10351;SDS011;5222;49.324;8.420;2022-07-22T09:19:09;891.63;;;828.63;;
10351;SDS011;5222;49.324;8.420;2022-07-22T09:21:36;896.22;;;832.15;;
10351;SDS011;5222;49.324;8.420;2022-07-22T09:24:05;887.58;;;824.95;;
10351;SDS011;5222;49.324;8.420;2022-07-22T09:26:33;896.83;;;833.72;;
10351;SDS011;5222;49.324;8.420;2022-07-22T09:29:02;897.72;;;832.50;;
10351;SDS011;5222;49.324;8.420;2022-07-22T09:31:31;890.00;;;827.38;;
10351;SDS011;5222;49.324;8.420;2022-07-22T09:34:00;886.92;;;824.80;;
10351;SDS011;5222;49.324;8.420;2022-07-22T09:36:29;901.83;;;838.42;;
10351;SDS011;5222;49.324;8.420;2022-07-22T09:38:57;898.50;;;835.40;;
10351;SDS011;5222;49.324;8.420;2022-07-22T09:41:24;899.53;;;835.63;;
10351;SDS011;5222;49.324;8.420;2022-07-22T09:43:50;897.83;;;834.47;;
10351;SDS011;5222;49.324;8.420;2022-07-22T09:46:17;904.33;;;840.35;;
10351;SDS011;5222;49.324;8.420;2022-07-22T09:49:01;898.50;;;834.27;;
10351;SDS011;5222;49.324;8.420;2022-07-22T09:51:30;898.60;;;834.58;;
10351;SDS011;5222;49.324;8.420;2022-07-22T09:53:57;892.70;;;830.17;;
10351;SDS011;5222;49.324;8.420;2022-07-22T09:56:24;904.03;;;839.20;;
10351;SDS011;5222;49.324;8.420;2022-07-22T09:58:54;896.55;;;833.53;;
10351;SDS011;5222;49.324;8.420;2022-07-22T10:01:21;898.30;;;835.70;;
10351;SDS011;5222;49.324;8.420;2022-07-22T10:03:48;898.63;;;835.47;;
10351;SDS011;5222;49.324;8.420;2022-07-22T10:06:18;890.53;;;828.03;;
10351;SDS011;5222;49.324;8.420;2022-07-22T10:08:46;891.70;;;828.85;;
10351;SDS011;5222;49.324;8.420;2022-07-22T10:11:13;894.45;;;831.50;;
10351;SDS011;5222;49.324;8.420;2022-07-22T10:13:41;895.53;;;832.80;;
10351;SDS011;5222;49.324;8.420;2022-07-22T10:16:08;892.30;;;829.53;;
10351;SDS011;5222;49.324;8.420;2022-07-22T10:18:35;891.80;;;829.20;;
10351;SDS011;5222;49.324;8.420;2022-07-22T10:21:04;895.83;;;832.53;;
10351;SDS011;5222;49.324;8.420;2022-07-22T10:23:32;903.35;;;839.90;;
10351;SDS011;5222;49.324;8.420;2022-07-22T10:26:00;892.88;;;830.58;;
10351;SDS011;5222;49.324;8.420;2022-07-22T10:28:29;921.45;;;856.05;;
10351;SDS011;5222;49.324;8.420;2022-07-22T10:31:16;906.33;;;843.63;;
10351;SDS011;5222;49.324;8.420;2022-07-22T10:33:44;902.50;;;839.80;;
10351;SDS011;5222;49.324;8.420;2022-07-22T10:36:13;916.15;;;852.72;;
10351;SDS011;5222;49.324;8.420;2022-07-22T10:38:43;911.03;;;848.00;;
10351;SDS011;5222;49.324;8.420;2022-07-22T10:41:32;923.97;;;860.03;;
10351;SDS011;5222;49.324;8.420;2022-07-22T10:44:01;915.63;;;852.65;;
10351;SDS011;5222;49.324;8.420;2022-07-22T10:49:17;923.15;;;858.10;;
10351;SDS011;5222;49.324;8.420;2022-07-22T10:57:38;914.92;;;851.00;;
10351;SDS011;5222;49.324;8.420;2022-07-22T11:00:05;915.72;;;852.05;;
10351;SDS011;5222;49.324;8.420;2022-07-22T11:02:33;917.40;;;853.38;;
10351;SDS011;5222;49.324;8.420;2022-07-22T11:05:03;916.78;;;853.40;;
10351;SDS011;5222;49.324;8.420;2022-07-22T11:07:31;921.55;;;857.50;;
10351;SDS011;5222;49.324;8.420;2022-07-22T11:10:08;926.33;;;861.63;;
10351;SDS011;5222;49.324;8.420;2022-07-22T11:12:37;935.00;;;870.60;;
10351;SDS011;5222;49.324;8.420;2022-07-22T11:15:05;937.88;;;873.53;;
10351;SDS011;5222;49.324;8.420;2022-07-22T11:17:33;932.38;;;867.92;;
10351;SDS011;5222;49.324;8.420;2022-07-22T11:20:00;848.77;;;787.13;;
10351;SDS011;5222;49.324;8.420;2022-07-22T11:22:29;842.50;;;781.30;;
10351;SDS011;5222;49.324;8.420;2022-07-22T11:24:56;829.63;;;768.42;;
10351;SDS011;5222;49.324;8.420;2022-07-22T11:27:23;826.58;;;766.08;;
10351;SDS011;5222;49.324;8.420;2022-07-22T11:29:51;834.60;;;773.00;;
10351;SDS011;5222;49.324;8.420;2022-07-22T11:32:20;827.08;;;765.70;;
10351;SDS011;5222;49.324;8.420;2022-07-22T11:34:48;822.80;;;762.05;;
10351;SDS011;5222;49.324;8.420;2022-07-22T11:37:15;815.03;;;755.45;;
10351;SDS011;5222;49.324;8.420;2022-07-22T11:39:43;838.47;;;777.50;;
10351;SDS011;5222;49.324;8.420;2022-07-22T11:42:11;841.05;;;780.45;;
10351;SDS011;5222;49.324;8.420;2022-07-22T11:44:38;838.33;;;777.33;;
10351;SDS011;5222;49.324;8.420;2022-07-22T11:47:07;863.65;;;802.47;;
10351;SDS011;5222;49.324;8.420;2022-07-22T11:49:35;851.05;;;790.03;;
10351;SDS011;5222;49.324;8.420;2022-07-22T11:52:04;858.90;;;797.65;;
10351;SDS011;5222;49.324;8.420;2022-07-22T11:54:32;858.67;;;797.30;;
10351;SDS011;5222;49.324;8.420;2022-07-22T11:56:59;857.88;;;796.53;;
10351;SDS011;5222;49.324;8.420;2022-07-22T11:59:28;863.05;;;801.30;;
10351;SDS011;5222;49.324;8.420;2022-07-22T12:01:55;856.47;;;795.22;;
10351;SDS011;5222;49.324;8.420;2022-07-22T12:04:24;858.42;;;797.63;;
10351;SDS011;5222;49.324;8.420;2022-07-22T12:06:53;863.50;;;801.95;;
10351;SDS011;5222;49.324;8.420;2022-07-22T12:09:21;866.03;;;804.45;;
10351;SDS011;5222;49.324;8.420;2022-07-22T12:11:50;878.20;;;815.28;;
10351;SDS011;5222;49.324;8.420;2022-07-22T12:14:19;885.05;;;822.30;;
10351;SDS011;5222;49.324;8.420;2022-07-22T12:16:53;873.25;;;810.67;;
10351;SDS011;5222;49.324;8.420;2022-07-22T12:19:21;854.33;;;793.97;;
10351;SDS011;5222;49.324;8.420;2022-07-22T12:21:53;857.28;;;795.78;;
10351;SDS011;5222;49.324;8.420;2022-07-22T12:24:25;853.05;;;792.25;;
10351;SDS011;5222;49.324;8.420;2022-07-22T12:26:53;853.00;;;792.17;;
10351;SDS011;5222;49.324;8.420;2022-07-22T12:29:22;852.42;;;792.28;;
10351;SDS011;5222;49.324;8.420;2022-07-22T12:31:51;863.13;;;802.67;;
10351;SDS011;5222;49.324;8.420;2022-07-22T12:34:35;857.08;;;796.58;;
10351;SDS011;5222;49.324;8.420;2022-07-22T12:37:16;862.00;;;801.08;;
10351;SDS011;5222;49.324;8.420;2022-07-22T12:39:53;871.88;;;810.10;;
10351;SDS011;5222;49.324;8.420;2022-07-22T12:42:21;859.65;;;798.35;;
10351;SDS011;5222;49.324;8.420;2022-07-22T12:44:53;878.25;;;815.95;;
10351;SDS011;5222;49.324;8.420;2022-07-22T12:47:44;870.58;;;808.83;;
10351;SDS011;5222;49.324;8.420;2022-07-22T12:50:22;863.92;;;802.90;;
10351;SDS011;5222;49.324;8.420;2022-07-22T12:52:53;870.72;;;809.47;;
10351;SDS011;5222;49.324;8.420;2022-07-22T12:55:21;869.90;;;808.35;;
10351;SDS011;5222;49.324;8.420;2022-07-22T12:57:48;884.50;;;821.72;;
10351;SDS011;5222;49.324;8.420;2022-07-22T13:00:16;875.00;;;813.33;;
10351;SDS011;5222;49.324;8.420;2022-07-22T13:02:44;889.55;;;826.42;;
10351;SDS011;5222;49.324;8.420;2022-07-22T13:05:11;869.85;;;808.78;;
10351;SDS011;5222;49.324;8.420;2022-07-22T13:07:38;870.75;;;809.15;;
10351;SDS011;5222;49.324;8.420;2022-07-22T13:10:08;864.83;;;803.72;;
10351;SDS011;5222;49.324;8.420;2022-07-22T13:12:35;866.03;;;805.38;;
10351;SDS011;5222;49.324;8.420;2022-07-22T13:15:02;872.55;;;810.90;;
10351;SDS011;5222;49.324;8.420;2022-07-22T13:17:29;867.90;;;806.80;;
10351;SDS011;5222;49.324;8.420;2022-07-22T13:19:56;861.97;;;801.38;;
10351;SDS011;5222;49.324;8.420;2022-07-22T13:22:23;864.08;;;803.83;;
10351;SDS011;5222;49.324;8.420;2022-07-22T13:24:49;868.42;;;807.45;;
10351;SDS011;5222;49.324;8.420;2022-07-22T13:27:18;874.43;;;813.80;;
10351;SDS011;5222;49.324;8.420;2022-07-22T13:29:44;878.22;;;816.42;;
10351;SDS011;5222;49.324;8.420;2022-07-22T13:32:11;862.95;;;802.72;;
10351;SDS011;5222;49.324;8.420;2022-07-22T13:34:38;865.42;;;803.78;;
10351;SDS011;5222;49.324;8.420;2022-07-22T13:37:05;865.47;;;803.97;;
10351;SDS011;5222;49.324;8.420;2022-07-22T13:39:32;866.78;;;805.25;;
10351;SDS011;5222;49.324;8.420;2022-07-22T13:41:59;852.42;;;792.60;;
10351;SDS011;5222;49.324;8.420;2022-07-22T13:44:27;862.30;;;802.38;;
10351;SDS011;5222;49.324;8.420;2022-07-22T13:46:55;858.10;;;797.60;;
10351;SDS011;5222;49.324;8.420;2022-07-22T13:49:22;860.47;;;799.30;;
10351;SDS011;5222;49.324;8.420;2022-07-22T13:51:49;854.95;;;793.90;;
10351;SDS011;5222;49.324;8.420;2022-07-22T13:54:16;845.70;;;785.72;;
10351;SDS011;5222;49.324;8.420;2022-07-22T13:56:43;854.10;;;793.38;;
10351;SDS011;5222;49.324;8.420;2022-07-22T13:59:12;860.58;;;799.75;;
10351;SDS011;5222;49.324;8.420;2022-07-22T14:01:41;861.28;;;800.80;;
10351;SDS011;5222;49.324;8.420;2022-07-22T14:04:08;870.38;;;808.95;;
10351;SDS011;5222;49.324;8.420;2022-07-22T14:06:35;870.42;;;808.80;;
10351;SDS011;5222;49.324;8.420;2022-07-22T14:09:03;875.97;;;814.47;;
10351;SDS011;5222;49.324;8.420;2022-07-22T14:11:30;867.10;;;806.33;;
10351;SDS011;5222;49.324;8.420;2022-07-22T14:13:57;872.53;;;811.83;;
10351;SDS011;5222;49.324;8.420;2022-07-22T14:16:24;860.83;;;801.07;;